sensor_id;sensor_type;location;lat;lon;timestamp;P1;durP1;ratioP1;P2;durP2;ratioP2
79171;SDS011;68597;53.238;-1.418;2023-04-03T00:01:10;6.03;;;2.25;;
79171;SDS011;68597;53.238;-1.418;2023-04-03T00:03:36;6.28;;;2.03;;
79171;SDS011;68597;53.238;-1.418;2023-04-03T00:06:02;8.60;;;2.25;;
79171;SDS011;68597;53.238;-1.418;2023-04-03T00:08:27;7.63;;;2.38;;
79171;SDS011;68597;53.238;-1.418;2023-04-03T00:10:53;8.10;;;2.10;;
79171;SDS011;68597;53.238;-1.418;2023-04-03T00:13:19;9.43;;;1.73;;
79171;SDS011;68597;53.238;-1.418;2023-04-03T00:15:46;4.57;;;1.75;;
79171;SDS011;68597;53.238;-1.418;2023-04-03T00:18:11;5.75;;;1.90;;
79171;SDS011;68597;53.238;-1.418;2023-04-03T00:20:37;6.30;;;2.35;;
79171;SDS011;68597;53.238;-1.418;2023-04-03T00:23:02;4.35;;;1.83;;
79171;SDS011;68597;53.238;-1.418;2023-04-03T00:25:28;8.57;;;2.00;;
79171;SDS011;68597;53.238;-1.418;2023-04-03T00:27:54;7.75;;;1.85;;
79171;SDS011;68597;53.238;-1.418;2023-04-03T00:30:20;4.78;;;1.80;;
79171;SDS011;68597;53.238;-1.418;2023-04-03T00:32:50;6.55;;;1.67;;
79171;SDS011;68597;53.238;-1.418;2023-04-03T00:35:17;10.52;;;2.15;;
79171;SDS011;68597;53.238;-1.418;2023-04-03T00:37:44;5.18;;;1.63;;
79171;SDS011;68597;53.238;-1.418;2023-04-03T00:40:10;7.22;;;1.88;;
79171;SDS011;68597;53.238;-1.418;2023-04-03T00:42:37;5.88;;;2.28;;
79171;SDS011;68597;53.238;-1.418;2023-04-03T00:45:22;7.43;;;2.10;;
79171;SDS011;68597;53.238;-1.418;2023-04-03T00:47:53;6.47;;;2.10;;
79171;SDS011;68597;53.238;-1.418;2023-04-03T00:50:19;5.28;;;1.65;;
79171;SDS011;68597;53.238;-1.418;2023-04-03T00:52:45;8.43;;;2.22;;
79171;SDS011;68597;53.238;-1.418;2023-04-03T00:55:11;5.45;;;1.80;;
79171;SDS011;68597;53.238;-1.418;2023-04-03T00:57:37;7.30;;;2.00;;
79171;SDS011;68597;53.238;-1.418;2023-04-03T01:00:05;6.25;;;2.28;;
79171;SDS011;68597;53.238;-1.418;2023-04-03T01:02:33;6.55;;;2.60;;
79171;SDS011;68597;53.238;-1.418;2023-04-03T01:05:00;5.72;;;2.17;;
79171;SDS011;68597;53.238;-1.418;2023-04-03T01:07:27;6.28;;;2.35;;
79171;SDS011;68597;53.238;-1.418;2023-04-03T01:09:56;10.27;;;2.53;;
79171;SDS011;68597;53.238;-1.418;2023-04-03T01:12:23;7.95;;;3.28;;
79171;SDS011;68597;53.238;-1.418;2023-04-03T01:14:50;7.05;;;2.47;;
79171;SDS011;68597;53.238;-1.418;2023-04-03T01:17:24;10.45;;;3.25;;
79171;SDS011;68597;53.238;-1.418;2023-04-03T01:20:00;8.35;;;2.60;;
79171;SDS011;68597;53.238;-1.418;2023-04-03T01:22:41;9.32;;;3.33;;
79171;SDS011;68597;53.238;-1.418;2023-04-03T01:25:16;7.00;;;2.75;;
79171;SDS011;68597;53.238;-1.418;2023-04-03T01:27:42;11.10;;;3.83;;
79171;SDS011;68597;53.238;-1.418;2023-04-03T01:30:08;10.38;;;4.60;;
79171;SDS011;68597;53.238;-1.418;2023-04-03T01:32:36;12.98;;;4.00;;
79171;SDS011;68597;53.238;-1.418;2023-04-03T01:35:02;10.55;;;4.60;;
79171;SDS011;68597;53.238;-1.418;2023-04-03T01:37:28;9.60;;;3.95;;
79171;SDS011;68597;53.238;-1.418;2023-04-03T01:39:54;8.57;;;3.55;;
79171;SDS011;68597;53.238;-1.418;2023-04-03T01:42:19;13.43;;;3.75;;
79171;SDS011;68597;53.238;-1.418;2023-04-03T01:44:46;10.63;;;3.72;;
79171;SDS011;68597;53.238;-1.418;2023-04-03T01:47:11;9.43;;;3.38;;
79171;SDS011;68597;53.238;-1.418;2023-04-03T01:49:40;11.30;;;3.80;;
79171;SDS011;68597;53.238;-1.418;2023-04-03T01:52:06;9.65;;;3.70;;
79171;SDS011;68597;53.238;-1.418;2023-04-03T01:54:31;9.75;;;4.05;;
79171;SDS011;68597;53.238;-1.418;2023-04-03T01:56:57;13.60;;;4.25;;
79171;SDS011;68597;53.238;-1.418;2023-04-03T01:59:23;13.48;;;4.32;;
79171;SDS011;68597;53.238;-1.418;2023-04-03T02:01:49;12.63;;;4.53;;
79171;SDS011;68597;53.238;-1.418;2023-04-03T02:04:15;10.68;;;3.55;;
79171;SDS011;68597;53.238;-1.418;2023-04-03T02:06:42;8.93;;;3.47;;
79171;SDS011;68597;53.238;-1.418;2023-04-03T02:09:07;9.35;;;3.65;;
79171;SDS011;68597;53.238;-1.418;2023-04-03T02:11:33;9.68;;;3.15;;
79171;SDS011;68597;53.238;-1.418;2023-04-03T02:13:58;9.75;;;3.72;;
79171;SDS011;68597;53.238;-1.418;2023-04-03T02:16:24;8.93;;;3.92;;
79171;SDS011;68597;53.238;-1.418;2023-04-03T02:18:49;9.25;;;3.20;;
79171;SDS011;68597;53.238;-1.418;2023-04-03T02:21:15;8.45;;;3.45;;
79171;SDS011;68597;53.238;-1.418;2023-04-03T02:23:42;10.77;;;4.47;;
79171;SDS011;68597;53.238;-1.418;2023-04-03T02:26:08;7.43;;;3.22;;
79171;SDS011;68597;53.238;-1.418;2023-04-03T02:28:35;8.20;;;3.35;;
79171;SDS011;68597;53.238;-1.418;2023-04-03T02:31:01;10.68;;;3.42;;
79171;SDS011;68597;53.238;-1.418;2023-04-03T02:33:28;11.57;;;3.78;;
79171;SDS011;68597;53.238;-1.418;2023-04-03T02:35:54;6.65;;;3.55;;
79171;SDS011;68597;53.238;-1.418;2023-04-03T02:38:21;8.15;;;3.40;;
79171;SDS011;68597;53.238;-1.418;2023-04-03T02:40:49;11.30;;;3.75;;
79171;SDS011;68597;53.238;-1.418;2023-04-03T02:43:15;11.68;;;4.43;;
79171;SDS011;68597;53.238;-1.418;2023-04-03T02:45:40;8.52;;;3.63;;
79171;SDS011;68597;53.238;-1.418;2023-04-03T02:48:06;9.43;;;3.60;;
79171;SDS011;68597;53.238;-1.418;2023-04-03T02:50:31;11.05;;;3.47;;
79171;SDS011;68597;53.238;-1.418;2023-04-03T02:52:58;12.00;;;3.90;;
79171;SDS011;68597;53.238;-1.418;2023-04-03T02:55:24;9.10;;;4.00;;
79171;SDS011;68597;53.238;-1.418;2023-04-03T02:57:53;10.25;;;4.20;;
79171;SDS011;68597;53.238;-1.418;2023-04-03T03:00:19;12.05;;;3.22;;
79171;SDS011;68597;53.238;-1.418;2023-04-03T03:02:45;13.00;;;4.53;;
79171;SDS011;68597;53.238;-1.418;2023-04-03T03:05:10;10.88;;;4.13;;
79171;SDS011;68597;53.238;-1.418;2023-04-03T03:07:36;10.90;;;4.35;;
79171;SDS011;68597;53.238;-1.418;2023-04-03T03:10:02;9.02;;;3.63;;
79171;SDS011;68597;53.238;-1.418;2023-04-03T03:12:27;13.35;;;4.00;;
79171;SDS011;68597;53.238;-1.418;2023-04-03T03:14:56;6.60;;;2.85;;
79171;SDS011;68597;53.238;-1.418;2023-04-03T03:17:21;11.30;;;3.83;;
79171;SDS011;68597;53.238;-1.418;2023-04-03T03:19:47;12.80;;;3.75;;
79171;SDS011;68597;53.238;-1.418;2023-04-03T03:22:13;11.32;;;4.53;;
79171;SDS011;68597;53.238;-1.418;2023-04-03T03:24:38;9.30;;;3.75;;
79171;SDS011;68597;53.238;-1.418;2023-04-03T03:27:04;8.60;;;3.65;;
79171;SDS011;68597;53.238;-1.418;2023-04-03T03:29:29;9.95;;;4.07;;
79171;SDS011;68597;53.238;-1.418;2023-04-03T03:31:56;9.85;;;4.13;;
79171;SDS011;68597;53.238;-1.418;2023-04-03T03:34:22;8.27;;;3.40;;
79171;SDS011;68597;53.238;-1.418;2023-04-03T03:36:48;10.70;;;3.95;;
79171;SDS011;68597;53.238;-1.418;2023-04-03T03:39:13;9.80;;;4.50;;
79171;SDS011;68597;53.238;-1.418;2023-04-03T03:41:39;11.13;;;4.18;;
79171;SDS011;68597;53.238;-1.418;2023-04-03T03:44:05;7.63;;;3.25;;
79171;SDS011;68597;53.238;-1.418;2023-04-03T03:46:32;15.23;;;3.80;;
79171;SDS011;68597;53.238;-1.418;2023-04-03T03:48:59;13.02;;;3.78;;
79171;SDS011;68597;53.238;-1.418;2023-04-03T03:51:25;11.75;;;4.18;;
79171;SDS011;68597;53.238;-1.418;2023-04-03T03:53:50;9.00;;;3.10;;
79171;SDS011;68597;53.238;-1.418;2023-04-03T03:56:18;9.60;;;4.20;;
79171;SDS011;68597;53.238;-1.418;2023-04-03T03:58:45;9.82;;;3.75;;
79171;SDS011;68597;53.238;-1.418;2023-04-03T04:01:11;7.57;;;3.67;;
79171;SDS011;68597;53.238;-1.418;2023-04-03T04:03:41;7.13;;;2.92;;
79171;SDS011;68597;53.238;-1.418;2023-04-03T04:06:10;9.45;;;3.85;;
79171;SDS011;68597;53.238;-1.418;2023-04-03T04:08:36;10.25;;;3.53;;
79171;SDS011;68597;53.238;-1.418;2023-04-03T04:11:04;10.35;;;3.70;;
79171;SDS011;68597;53.238;-1.418;2023-04-03T04:13:31;7.68;;;2.72;;
79171;SDS011;68597;53.238;-1.418;2023-04-03T04:15:57;8.15;;;3.47;;
79171;SDS011;68597;53.238;-1.418;2023-04-03T04:18:22;8.50;;;3.30;;
79171;SDS011;68597;53.238;-1.418;2023-04-03T04:20:48;8.85;;;3.53;;
79171;SDS011;68597;53.238;-1.418;2023-04-03T04:23:17;9.27;;;2.80;;
79171;SDS011;68597;53.238;-1.418;2023-04-03T04:25:44;11.13;;;3.75;;
79171;SDS011;68597;53.238;-1.418;2023-04-03T04:28:10;10.32;;;3.70;;
79171;SDS011;68597;53.238;-1.418;2023-04-03T04:30:35;10.88;;;3.15;;
79171;SDS011;68597;53.238;-1.418;2023-04-03T04:33:01;12.13;;;4.00;;
79171;SDS011;68597;53.238;-1.418;2023-04-03T04:35:29;8.35;;;3.60;;
79171;SDS011;68597;53.238;-1.418;2023-04-03T04:37:55;8.50;;;3.83;;
79171;SDS011;68597;53.238;-1.418;2023-04-03T04:40:22;7.03;;;3.00;;
79171;SDS011;68597;53.238;-1.418;2023-04-03T04:42:48;11.57;;;3.22;;
79171;SDS011;68597;53.238;-1.418;2023-04-03T04:45:14;8.57;;;3.05;;
79171;SDS011;68597;53.238;-1.418;2023-04-03T04:47:42;11.00;;;3.92;;
79171;SDS011;68597;53.238;-1.418;2023-04-03T04:50:09;7.53;;;3.25;;
79171;SDS011;68597;53.238;-1.418;2023-04-03T04:52:35;9.07;;;3.60;;
79171;SDS011;68597;53.238;-1.418;2023-04-03T04:55:00;8.18;;;3.13;;
79171;SDS011;68597;53.238;-1.418;2023-04-03T04:57:28;7.95;;;3.13;;
79171;SDS011;68597;53.238;-1.418;2023-04-03T04:59:56;13.18;;;2.90;;
79171;SDS011;68597;53.238;-1.418;2023-04-03T05:02:21;9.85;;;3.58;;
79171;SDS011;68597;53.238;-1.418;2023-04-03T05:04:47;8.00;;;3.17;;
79171;SDS011;68597;53.238;-1.418;2023-04-03T05:07:18;7.15;;;3.35;;
79171;SDS011;68597;53.238;-1.418;2023-04-03T05:09:44;6.82;;;2.70;;
79171;SDS011;68597;53.238;-1.418;2023-04-03T05:12:11;7.57;;;2.72;;
79171;SDS011;68597;53.238;-1.418;2023-04-03T05:14:44;8.73;;;3.38;;
79171;SDS011;68597;53.238;-1.418;2023-04-03T05:17:10;8.75;;;3.03;;
79171;SDS011;68597;53.238;-1.418;2023-04-03T05:19:39;8.48;;;3.67;;
79171;SDS011;68597;53.238;-1.418;2023-04-03T05:22:06;9.73;;;3.25;;
79171;SDS011;68597;53.238;-1.418;2023-04-03T05:24:32;9.30;;;3.20;;
79171;SDS011;68597;53.238;-1.418;2023-04-03T05:26:58;8.20;;;3.15;;
79171;SDS011;68597;53.238;-1.418;2023-04-03T05:29:23;10.40;;;4.20;;
79171;SDS011;68597;53.238;-1.418;2023-04-03T05:31:50;13.07;;;3.63;;
79171;SDS011;68597;53.238;-1.418;2023-04-03T05:34:16;9.82;;;4.65;;
79171;SDS011;68597;53.238;-1.418;2023-04-03T05:36:43;10.65;;;4.57;;
79171;SDS011;68597;53.238;-1.418;2023-04-03T05:39:09;9.65;;;3.83;;
79171;SDS011;68597;53.238;-1.418;2023-04-03T05:41:38;10.23;;;3.35;;
79171;SDS011;68597;53.238;-1.418;2023-04-03T05:44:04;9.73;;;4.25;;
79171;SDS011;68597;53.238;-1.418;2023-04-03T05:46:29;10.18;;;3.53;;
79171;SDS011;68597;53.238;-1.418;2023-04-03T05:48:59;12.10;;;4.00;;
79171;SDS011;68597;53.238;-1.418;2023-04-03T05:51:33;9.25;;;4.22;;
79171;SDS011;68597;53.238;-1.418;2023-04-03T05:54:08;7.97;;;3.45;;
79171;SDS011;68597;53.238;-1.418;2023-04-03T05:56:37;9.50;;;3.47;;
79171;SDS011;68597;53.238;-1.418;2023-04-03T05:59:04;10.63;;;4.45;;
79171;SDS011;68597;53.238;-1.418;2023-04-03T06:01:29;7.35;;;3.53;;
79171;SDS011;68597;53.238;-1.418;2023-04-03T06:03:55;11.00;;;4.60;;
79171;SDS011;68597;53.238;-1.418;2023-04-03T06:06:23;11.75;;;3.80;;
79171;SDS011;68597;53.238;-1.418;2023-04-03T06:08:49;7.80;;;3.97;;
79171;SDS011;68597;53.238;-1.418;2023-04-03T06:11:15;8.32;;;3.72;;
79171;SDS011;68597;53.238;-1.418;2023-04-03T06:13:41;10.13;;;4.88;;
79171;SDS011;68597;53.238;-1.418;2023-04-03T06:16:08;9.18;;;3.97;;
79171;SDS011;68597;53.238;-1.418;2023-04-03T06:18:34;12.95;;;4.93;;
79171;SDS011;68597;53.238;-1.418;2023-04-03T06:21:00;15.15;;;4.95;;
79171;SDS011;68597;53.238;-1.418;2023-04-03T06:23:27;14.00;;;5.18;;
79171;SDS011;68597;53.238;-1.418;2023-04-03T06:25:52;10.77;;;3.75;;
79171;SDS011;68597;53.238;-1.418;2023-04-03T06:28:18;12.57;;;4.50;;
79171;SDS011;68597;53.238;-1.418;2023-04-03T06:30:43;11.98;;;4.88;;
79171;SDS011;68597;53.238;-1.418;2023-04-03T06:33:09;14.48;;;4.70;;
79171;SDS011;68597;53.238;-1.418;2023-04-03T06:35:34;15.23;;;5.70;;
79171;SDS011;68597;53.238;-1.418;2023-04-03T06:38:00;11.73;;;5.55;;
79171;SDS011;68597;53.238;-1.418;2023-04-03T06:40:27;11.00;;;5.60;;
79171;SDS011;68597;53.238;-1.418;2023-04-03T06:42:53;11.45;;;5.60;;
79171;SDS011;68597;53.238;-1.418;2023-04-03T06:45:19;13.70;;;5.38;;
79171;SDS011;68597;53.238;-1.418;2023-04-03T06:47:44;17.45;;;6.25;;
79171;SDS011;68597;53.238;-1.418;2023-04-03T06:50:10;11.77;;;5.55;;
79171;SDS011;68597;53.238;-1.418;2023-04-03T06:52:36;18.65;;;7.03;;
79171;SDS011;68597;53.238;-1.418;2023-04-03T06:55:02;15.40;;;7.63;;
79171;SDS011;68597;53.238;-1.418;2023-04-03T06:57:29;17.52;;;7.47;;
79171;SDS011;68597;53.238;-1.418;2023-04-03T06:59:55;17.17;;;7.22;;
79171;SDS011;68597;53.238;-1.418;2023-04-03T07:02:20;16.27;;;6.43;;
79171;SDS011;68597;53.238;-1.418;2023-04-03T07:04:46;12.13;;;5.35;;
79171;SDS011;68597;53.238;-1.418;2023-04-03T07:07:12;11.23;;;5.30;;
79171;SDS011;68597;53.238;-1.418;2023-04-03T07:09:37;12.98;;;4.43;;
79171;SDS011;68597;53.238;-1.418;2023-04-03T07:12:03;12.55;;;4.97;;
79171;SDS011;68597;53.238;-1.418;2023-04-03T07:14:30;8.30;;;4.45;;
79171;SDS011;68597;53.238;-1.418;2023-04-03T07:16:55;10.00;;;5.03;;
79171;SDS011;68597;53.238;-1.418;2023-04-03T07:19:21;10.32;;;4.35;;
79171;SDS011;68597;53.238;-1.418;2023-04-03T07:21:46;8.90;;;4.60;;
79171;SDS011;68597;53.238;-1.418;2023-04-03T07:24:12;14.23;;;5.18;;
79171;SDS011;68597;53.238;-1.418;2023-04-03T07:26:37;13.57;;;5.70;;
79171;SDS011;68597;53.238;-1.418;2023-04-03T07:29:03;12.52;;;5.65;;
79171;SDS011;68597;53.238;-1.418;2023-04-03T07:31:30;15.88;;;5.40;;
79171;SDS011;68597;53.238;-1.418;2023-04-03T07:33:55;10.52;;;5.32;;
79171;SDS011;68597;53.238;-1.418;2023-04-03T07:36:21;15.93;;;5.47;;
79171;SDS011;68597;53.238;-1.418;2023-04-03T07:38:47;11.38;;;5.07;;
79171;SDS011;68597;53.238;-1.418;2023-04-03T07:41:14;15.07;;;5.38;;
79171;SDS011;68597;53.238;-1.418;2023-04-03T07:43:41;13.32;;;5.65;;
79171;SDS011;68597;53.238;-1.418;2023-04-03T07:46:06;9.70;;;4.97;;
79171;SDS011;68597;53.238;-1.418;2023-04-03T07:48:33;14.82;;;5.40;;
79171;SDS011;68597;53.238;-1.418;2023-04-03T07:50:59;14.82;;;4.93;;
79171;SDS011;68597;53.238;-1.418;2023-04-03T07:53:25;19.17;;;5.55;;
79171;SDS011;68597;53.238;-1.418;2023-04-03T07:55:50;12.48;;;4.85;;
79171;SDS011;68597;53.238;-1.418;2023-04-03T07:58:16;12.23;;;4.90;;
79171;SDS011;68597;53.238;-1.418;2023-04-03T08:00:43;13.32;;;5.70;;
79171;SDS011;68597;53.238;-1.418;2023-04-03T08:03:09;15.52;;;6.05;;
79171;SDS011;68597;53.238;-1.418;2023-04-03T08:05:37;11.20;;;5.18;;
79171;SDS011;68597;53.238;-1.418;2023-04-03T08:08:04;13.07;;;4.93;;
79171;SDS011;68597;53.238;-1.418;2023-04-03T08:10:30;10.70;;;4.88;;
79171;SDS011;68597;53.238;-1.418;2023-04-03T08:12:56;10.85;;;4.53;;
79171;SDS011;68597;53.238;-1.418;2023-04-03T08:15:21;11.13;;;4.30;;
79171;SDS011;68597;53.238;-1.418;2023-04-03T08:17:47;8.40;;;3.97;;
79171;SDS011;68597;53.238;-1.418;2023-04-03T08:20:13;10.10;;;4.25;;
79171;SDS011;68597;53.238;-1.418;2023-04-03T08:22:40;10.50;;;4.55;;
79171;SDS011;68597;53.238;-1.418;2023-04-03T08:25:05;11.52;;;4.88;;
79171;SDS011;68597;53.238;-1.418;2023-04-03T08:27:31;12.13;;;4.75;;
79171;SDS011;68597;53.238;-1.418;2023-04-03T08:29:57;15.52;;;5.20;;
79171;SDS011;68597;53.238;-1.418;2023-04-03T08:32:22;10.68;;;4.32;;
79171;SDS011;68597;53.238;-1.418;2023-04-03T08:34:48;14.73;;;4.70;;
79171;SDS011;68597;53.238;-1.418;2023-04-03T08:37:13;12.18;;;4.72;;
79171;SDS011;68597;53.238;-1.418;2023-04-03T08:39:40;10.13;;;3.40;;
79171;SDS011;68597;53.238;-1.418;2023-04-03T08:42:10;13.18;;;2.92;;
79171;SDS011;68597;53.238;-1.418;2023-04-03T08:44:43;6.78;;;2.75;;
79171;SDS011;68597;53.238;-1.418;2023-04-03T08:47:15;12.55;;;3.20;;
79171;SDS011;68597;53.238;-1.418;2023-04-03T08:49:46;10.23;;;3.58;;
79171;SDS011;68597;53.238;-1.418;2023-04-03T08:52:16;8.52;;;2.78;;
79171;SDS011;68597;53.238;-1.418;2023-04-03T08:54:50;10.73;;;2.78;;
79171;SDS011;68597;53.238;-1.418;2023-04-03T08:57:17;11.25;;;2.95;;
79171;SDS011;68597;53.238;-1.418;2023-04-03T08:59:48;7.95;;;1.80;;
79171;SDS011;68597;53.238;-1.418;2023-04-03T09:02:19;11.77;;;3.00;;
79171;SDS011;68597;53.238;-1.418;2023-04-03T09:04:49;6.22;;;2.50;;
79171;SDS011;68597;53.238;-1.418;2023-04-03T09:07:16;9.15;;;2.75;;
79171;SDS011;68597;53.238;-1.418;2023-04-03T09:09:48;7.78;;;2.60;;
79171;SDS011;68597;53.238;-1.418;2023-04-03T09:12:16;6.28;;;1.88;;
79171;SDS011;68597;53.238;-1.418;2023-04-03T09:14:46;6.60;;;2.75;;
79171;SDS011;68597;53.238;-1.418;2023-04-03T09:17:20;5.97;;;1.55;;
79171;SDS011;68597;53.238;-1.418;2023-04-03T09:19:54;7.10;;;1.85;;
79171;SDS011;68597;53.238;-1.418;2023-04-03T09:22:24;5.43;;;1.30;;
79171;SDS011;68597;53.238;-1.418;2023-04-03T09:24:52;5.40;;;1.13;;
79171;SDS011;68597;53.238;-1.418;2023-04-03T09:27:22;7.00;;;1.30;;
79171;SDS011;68597;53.238;-1.418;2023-04-03T09:29:48;6.30;;;1.50;;
79171;SDS011;68597;53.238;-1.418;2023-04-03T09:32:18;6.72;;;1.48;;
79171;SDS011;68597;53.238;-1.418;2023-04-03T09:34:46;5.15;;;1.30;;
79171;SDS011;68597;53.238;-1.418;2023-04-03T09:37:32;2.80;;;0.98;;
79171;SDS011;68597;53.238;-1.418;2023-04-03T09:40:01;7.82;;;1.23;;
79171;SDS011;68597;53.238;-1.418;2023-04-03T09:42:26;5.47;;;1.67;;
79171;SDS011;68597;53.238;-1.418;2023-04-03T09:44:55;7.00;;;1.40;;
79171;SDS011;68597;53.238;-1.418;2023-04-03T09:47:24;4.35;;;1.38;;
79171;SDS011;68597;53.238;-1.418;2023-04-03T09:49:50;4.93;;;1.65;;
79171;SDS011;68597;53.238;-1.418;2023-04-03T09:52:19;5.63;;;1.25;;
79171;SDS011;68597;53.238;-1.418;2023-04-03T09:54:47;7.22;;;1.52;;
79171;SDS011;68597;53.238;-1.418;2023-04-03T09:57:14;6.35;;;1.50;;
79171;SDS011;68597;53.238;-1.418;2023-04-03T09:59:42;6.68;;;1.33;;
79171;SDS011;68597;53.238;-1.418;2023-04-03T10:02:22;8.50;;;1.58;;
79171;SDS011;68597;53.238;-1.418;2023-04-03T10:04:55;7.65;;;1.85;;
79171;SDS011;68597;53.238;-1.418;2023-04-03T10:07:29;5.72;;;1.80;;
79171;SDS011;68597;53.238;-1.418;2023-04-03T10:09:57;4.70;;;1.65;;
79171;SDS011;68597;53.238;-1.418;2023-04-03T10:12:24;4.18;;;1.35;;
79171;SDS011;68597;53.238;-1.418;2023-04-03T10:14:54;5.03;;;1.58;;
79171;SDS011;68597;53.238;-1.418;2023-04-03T10:17:22;5.18;;;1.58;;
79171;SDS011;68597;53.238;-1.418;2023-04-03T10:19:57;7.43;;;1.30;;
79171;SDS011;68597;53.238;-1.418;2023-04-03T10:22:31;8.80;;;1.40;;
79171;SDS011;68597;53.238;-1.418;2023-04-03T10:25:09;5.75;;;2.38;;
79171;SDS011;68597;53.238;-1.418;2023-04-03T10:27:44;5.80;;;1.42;;
79171;SDS011;68597;53.238;-1.418;2023-04-03T10:30:25;10.80;;;1.95;;
79171;SDS011;68597;53.238;-1.418;2023-04-03T10:33:16;6.60;;;2.03;;
79171;SDS011;68597;53.238;-1.418;2023-04-03T10:35:50;6.90;;;1.63;;
79171;SDS011;68597;53.238;-1.418;2023-04-03T10:38:24;7.60;;;1.42;;
79171;SDS011;68597;53.238;-1.418;2023-04-03T10:40:57;5.75;;;1.50;;
79171;SDS011;68597;53.238;-1.418;2023-04-03T10:43:33;3.60;;;1.50;;
79171;SDS011;68597;53.238;-1.418;2023-04-03T10:46:05;5.95;;;1.85;;
79171;SDS011;68597;53.238;-1.418;2023-04-03T10:48:40;6.38;;;1.52;;
79171;SDS011;68597;53.238;-1.418;2023-04-03T10:51:22;8.85;;;2.58;;
79171;SDS011;68597;53.238;-1.418;2023-04-03T10:53:52;3.88;;;1.30;;
79171;SDS011;68597;53.238;-1.418;2023-04-03T10:56:22;6.38;;;1.40;;
79171;SDS011;68597;53.238;-1.418;2023-04-03T10:58:58;6.95;;;1.88;;
79171;SDS011;68597;53.238;-1.418;2023-04-03T11:01:33;4.03;;;1.52;;
79171;SDS011;68597;53.238;-1.418;2023-04-03T11:04:01;6.78;;;1.85;;
79171;SDS011;68597;53.238;-1.418;2023-04-03T11:06:31;5.50;;;1.60;;
79171;SDS011;68597;53.238;-1.418;2023-04-03T11:09:01;6.85;;;1.40;;
79171;SDS011;68597;53.238;-1.418;2023-04-03T11:11:29;4.68;;;1.58;;
79171;SDS011;68597;53.238;-1.418;2023-04-03T11:14:00;9.55;;;1.80;;
79171;SDS011;68597;53.238;-1.418;2023-04-03T11:16:28;7.30;;;1.80;;
79171;SDS011;68597;53.238;-1.418;2023-04-03T11:18:58;10.30;;;2.10;;
79171;SDS011;68597;53.238;-1.418;2023-04-03T11:21:28;4.43;;;1.75;;
79171;SDS011;68597;53.238;-1.418;2023-04-03T11:23:54;7.70;;;1.50;;
79171;SDS011;68597;53.238;-1.418;2023-04-03T11:26:23;7.88;;;2.30;;
79171;SDS011;68597;53.238;-1.418;2023-04-03T11:28:56;6.45;;;1.70;;
79171;SDS011;68597;53.238;-1.418;2023-04-03T11:31:29;7.18;;;1.63;;
79171;SDS011;68597;53.238;-1.418;2023-04-03T11:34:13;6.97;;;1.70;;
79171;SDS011;68597;53.238;-1.418;2023-04-03T11:36:50;7.85;;;2.53;;
79171;SDS011;68597;53.238;-1.418;2023-04-03T11:41:47;7.10;;;1.60;;
79171;SDS011;68597;53.238;-1.418;2023-04-03T11:44:28;6.28;;;2.03;;
79171;SDS011;68597;53.238;-1.418;2023-04-03T11:46:57;5.75;;;1.73;;
79171;SDS011;68597;53.238;-1.418;2023-04-03T11:55:41;7.20;;;1.88;;
79171;SDS011;68597;53.238;-1.418;2023-04-03T11:58:13;6.95;;;1.75;;
79171;SDS011;68597;53.238;-1.418;2023-04-03T12:00:53;5.95;;;1.90;;
79171;SDS011;68597;53.238;-1.418;2023-04-03T12:03:31;4.32;;;1.45;;
79171;SDS011;68597;53.238;-1.418;2023-04-03T12:09:24;7.22;;;1.88;;
79171;SDS011;68597;53.238;-1.418;2023-04-03T12:11:55;6.05;;;1.73;;
79171;SDS011;68597;53.238;-1.418;2023-04-03T12:14:22;5.28;;;1.58;;
79171;SDS011;68597;53.238;-1.418;2023-04-03T12:16:50;5.05;;;1.60;;
79171;SDS011;68597;53.238;-1.418;2023-04-03T12:19:29;6.28;;;1.58;;
79171;SDS011;68597;53.238;-1.418;2023-04-03T12:22:10;6.38;;;1.50;;
79171;SDS011;68597;53.238;-1.418;2023-04-03T12:24:38;4.75;;;1.55;;
79171;SDS011;68597;53.238;-1.418;2023-04-03T12:27:09;7.13;;;1.80;;
79171;SDS011;68597;53.238;-1.418;2023-04-03T12:29:43;5.85;;;1.92;;
79171;SDS011;68597;53.238;-1.418;2023-04-03T12:32:15;5.97;;;2.05;;
79171;SDS011;68597;53.238;-1.418;2023-04-03T12:34:53;6.80;;;1.67;;
79171;SDS011;68597;53.238;-1.418;2023-04-03T12:37:48;7.05;;;2.03;;
79171;SDS011;68597;53.238;-1.418;2023-04-03T12:40:26;5.10;;;1.40;;
79171;SDS011;68597;53.238;-1.418;2023-04-03T12:43:05;6.88;;;1.63;;
79171;SDS011;68597;53.238;-1.418;2023-04-03T12:45:43;6.97;;;2.50;;
79171;SDS011;68597;53.238;-1.418;2023-04-03T12:48:16;6.40;;;1.73;;
79171;SDS011;68597;53.238;-1.418;2023-04-03T12:50:44;6.45;;;1.98;;
79171;SDS011;68597;53.238;-1.418;2023-04-03T12:53:12;5.57;;;2.13;;
79171;SDS011;68597;53.238;-1.418;2023-04-03T12:55:40;6.05;;;1.92;;
79171;SDS011;68597;53.238;-1.418;2023-04-03T12:58:15;3.50;;;1.60;;
79171;SDS011;68597;53.238;-1.418;2023-04-03T13:00:42;4.80;;;1.48;;
79171;SDS011;68597;53.238;-1.418;2023-04-03T13:03:18;6.95;;;1.80;;
79171;SDS011;68597;53.238;-1.418;2023-04-03T13:05:49;5.60;;;1.90;;
79171;SDS011;68597;53.238;-1.418;2023-04-03T13:08:14;5.15;;;1.83;;
79171;SDS011;68597;53.238;-1.418;2023-04-03T13:10:53;7.13;;;2.00;;
79171;SDS011;68597;53.238;-1.418;2023-04-03T13:13:22;7.65;;;1.80;;
79171;SDS011;68597;53.238;-1.418;2023-04-03T13:15:47;7.45;;;2.17;;
79171;SDS011;68597;53.238;-1.418;2023-04-03T13:18:25;5.57;;;2.20;;
79171;SDS011;68597;53.238;-1.418;2023-04-03T13:20:53;6.57;;;2.97;;
79171;SDS011;68597;53.238;-1.418;2023-04-03T13:23:23;5.57;;;2.17;;
79171;SDS011;68597;53.238;-1.418;2023-04-03T13:25:49;8.10;;;2.17;;
79171;SDS011;68597;53.238;-1.418;2023-04-03T13:28:17;5.63;;;2.08;;
79171;SDS011;68597;53.238;-1.418;2023-04-03T13:30:54;6.65;;;1.77;;
79171;SDS011;68597;53.238;-1.418;2023-04-03T13:33:26;5.90;;;1.77;;
79171;SDS011;68597;53.238;-1.418;2023-04-03T13:35:55;6.82;;;2.05;;
79171;SDS011;68597;53.238;-1.418;2023-04-03T13:38:23;5.20;;;1.95;;
79171;SDS011;68597;53.238;-1.418;2023-04-03T13:40:50;6.45;;;2.22;;
79171;SDS011;68597;53.238;-1.418;2023-04-03T13:43:18;6.05;;;2.20;;
79171;SDS011;68597;53.238;-1.418;2023-04-03T13:45:57;6.50;;;1.92;;
79171;SDS011;68597;53.238;-1.418;2023-04-03T13:48:26;6.07;;;1.83;;
79171;SDS011;68597;53.238;-1.418;2023-04-03T13:51:00;7.00;;;1.77;;
79171;SDS011;68597;53.238;-1.418;2023-04-03T13:53:28;5.97;;;1.67;;
79171;SDS011;68597;53.238;-1.418;2023-04-03T13:55:56;7.63;;;2.33;;
79171;SDS011;68597;53.238;-1.418;2023-04-03T13:58:24;5.72;;;1.65;;
79171;SDS011;68597;53.238;-1.418;2023-04-03T14:00:52;9.63;;;1.80;;
79171;SDS011;68597;53.238;-1.418;2023-04-03T14:03:19;7.13;;;2.33;;
79171;SDS011;68597;53.238;-1.418;2023-04-03T14:05:48;6.93;;;1.80;;
79171;SDS011;68597;53.238;-1.418;2023-04-03T14:08:14;6.88;;;1.98;;
79171;SDS011;68597;53.238;-1.418;2023-04-03T14:10:39;11.68;;;2.75;;
79171;SDS011;68597;53.238;-1.418;2023-04-03T14:13:05;6.00;;;1.98;;
79171;SDS011;68597;53.238;-1.418;2023-04-03T14:15:30;7.10;;;1.80;;
79171;SDS011;68597;53.238;-1.418;2023-04-03T14:17:57;8.00;;;2.17;;
79171;SDS011;68597;53.238;-1.418;2023-04-03T14:20:25;6.78;;;2.08;;
79171;SDS011;68597;53.238;-1.418;2023-04-03T14:22:53;6.50;;;2.25;;
79171;SDS011;68597;53.238;-1.418;2023-04-03T14:25:18;6.38;;;1.85;;
79171;SDS011;68597;53.238;-1.418;2023-04-03T14:27:47;5.20;;;1.85;;
79171;SDS011;68597;53.238;-1.418;2023-04-03T14:30:15;5.28;;;2.05;;
79171;SDS011;68597;53.238;-1.418;2023-04-03T14:32:42;6.00;;;2.20;;
79171;SDS011;68597;53.238;-1.418;2023-04-03T14:35:08;4.50;;;1.92;;
79171;SDS011;68597;53.238;-1.418;2023-04-03T14:37:34;3.95;;;1.63;;
79171;SDS011;68597;53.238;-1.418;2023-04-03T14:40:02;6.03;;;2.55;;
79171;SDS011;68597;53.238;-1.418;2023-04-03T14:42:30;8.73;;;2.42;;
79171;SDS011;68597;53.238;-1.418;2023-04-03T14:44:57;5.75;;;2.25;;
79171;SDS011;68597;53.238;-1.418;2023-04-03T14:47:24;7.25;;;2.03;;
79171;SDS011;68597;53.238;-1.418;2023-04-03T14:49:51;7.22;;;1.90;;